Last 48 Hours

Stanford Met Tower

Hourly Data | America/Los_Angeles
as of 10/21/19 2:58 AM PDT
Date & Time Temp (°F) Temp Inversion (°F) RH (%) Dew Pt (°F) Wind Dir (°) Wind Spd (mph) Wind Gust (mph) Latest Rain (In) ETo Hr (in) ETo 2pm (In) Daily Rain (In) Daily Min Temp (°F) Daily Max Temp (°F)
10/21/19 - 0200 48.8 2.1 85 44.5 SSW | 210 6.5 12.5 0.00 0.000 0.08 0.00 48.6 50.7
10/21/19 - 0100 50.3 2.8 82 45.1 SSW | 193 8.3 13.3 0.00 0.000 0.08 0.00 44.4 74.3
10/21/19 - 0000 51.0 3.0 79 44.7 S | 188 6.9 10.8 0.00 0.000 0.08 0.00 44.4 74.3
10/20/19 - 2300 51.5 2.1 77 44.6 SSW | 212 3.8 7.3 0.00 0.000 0.08 0.00 44.4 74.3
10/20/19 - 2200 54.0 3.2 78 47.3 S | 175 5.4 9.3 0.00 0.000 0.08 0.00 44.4 74.3
10/20/19 - 2100 56.6 2.9 64 44.5 SSW | 213 4.6 9.2 0.00 0.000 0.08 0.00 44.4 74.3
10/20/19 - 2000 57.4 2.5 66 46.3 WSW | 254 3.7 7.5 0.00 0.000 0.08 0.00 44.4 74.3
10/20/19 - 1900 61.1 3.1 59 46.7 WNW | 302 4.5 11.7 0.00 0.000 0.08 0.00 44.4 74.3
10/20/19 - 1800 67.2 0.0 46 46.0 NNW | 331 10.7 25.3 0.00 0.000 0.08 0.00 44.4 74.3
10/20/19 - 1700 70.9 -1.7 35 41.6 NNW | 330 11.2 21.1 0.00 0.005 0.08 0.00 44.4 74.3
10/20/19 - 1600 71.9 -3.2 32 40.1 NNW | 330 13.6 26.7 0.00 0.009 0.08 0.00 44.4 74.3
10/20/19 - 1500 73.5 -3.9 29 39.4 N | 2 9.7 21.7 0.00 0.013 0.08 0.00 44.4 74.3
10/20/19 - 1400 72.2 -5.1 31 39.7 N | 353 9.1 21.1 0.00 0.014 0.07 0.00 44.4 73.1
10/20/19 - 1300 69.6 -5.2 41 44.7 NNW | 345 7.7 16.8 0.00 0.015 0.07 0.00 44.4 70.8
10/20/19 - 1200 67.0 -4.8 53 49.2 N | 350 7.1 16.5 0.00 0.013 0.07 0.00 44.4 67.9
10/20/19 - 1100 64.6 -4.5 56 48.5 N | 351 7.1 15.2 0.00 0.010 0.07 0.00 44.4 65.0
10/20/19 - 1000 61.2 -0.4 70 51.2 WNW | 300 4.2 11.0 0.00 0.006 0.07 0.00 44.4 61.8
10/20/19 - 0900 54.8 2.5 88 51.2 SW | 217 5.4 12.5 0.00 0.001 0.07 0.00 44.4 54.8
10/20/19 - 0800 47.1 2.3 98 46.8 SSW | 213 5.8 10.8 0.00 0.000 0.07 0.00 44.4 49.4
10/20/19 - 0700 44.8 2.7 98 44.2 SSW | 201 7.2 10.4 0.00 0.000 0.07 0.00 44.8 49.4
10/20/19 - 0600 45.7 2.0 97 44.9 SW | 217 5.5 10.4 0.00 0.000 0.07 0.00 45.3 49.4
10/20/19 - 0500 46.2 1.8 98 45.6 SSW | 203 6.2 9.9 0.00 0.000 0.07 0.00 45.5 49.4
10/20/19 - 0400 46.9 1.4 97 46.2 SW | 226 6.2 9.7 0.00 0.000 0.07 0.00 46.1 49.4
10/20/19 - 0300 46.2 1.8 96 45.2 SW | 226 5.0 9.7 0.00 0.000 0.07 0.00 46.2 49.4
10/20/19 - 0200 47.5 1.8 96 46.4 SSW | 207 6.1 10.8 0.00 0.000 0.07 0.00 47.1 49.4
10/20/19 - 0100 48.3 2.4 96 47.2 SSW | 213 5.4 9.7 0.00 0.000 0.07 0.00 42.9 69.8
10/20/19 - 0000 49.2 1.8 94 47.6 SSW | 202 7.3 10.1 0.00 0.000 0.07 0.00 42.9 69.8
10/19/19 - 2300 50.9 1.6 94 49.3 SSW | 196 2.8 5.5 0.00 0.000 0.07 0.00 42.9 69.8
10/19/19 - 2200 51.9 1.8 93 49.9 SSW | 200 4.4 8.6 0.00 0.000 0.07 0.00 42.9 69.8
10/19/19 - 2100 54.0 2.4 91 51.5 WNW | 290 2.8 7.3 0.00 0.000 0.07 0.00 42.9 69.8
10/19/19 - 2000 56.9 1.6 85 52.5 NW | 322 4.3 8.6 0.00 0.000 0.07 0.00 42.9 69.8
10/19/19 - 1900 60.3 0.9 79 53.8 NNW | 334 4.9 11.9 0.00 0.000 0.07 0.00 42.9 69.8
10/19/19 - 1800 64.7 -0.7 76 56.9 NNW | 346 5.8 19.4 0.00 0.001 0.07 0.00 42.9 69.8
10/19/19 - 1700 66.3 -1.6 76 58.5 NW | 310 9.2 19.9 0.00 0.004 0.07 0.00 42.9 69.8
10/19/19 - 1600 68.5 -3.8 68 57.5 WNW | 298 10.3 22.6 0.00 0.006 0.07 0.00 42.9 69.8
10/19/19 - 1500 67.6 -2.7 67 56.2 WNW | 294 11.2 22.2 0.00 0.009 0.07 0.00 42.9 69.8
10/19/19 - 1400 67.4 -2.4 66 55.7 WNW | 289 10.5 26.8 0.00 0.010 0.09 0.00 42.9 69.8
10/19/19 - 1300 67.8 -2.6 65 55.5 WNW | 299 10.2 22.8 0.00 0.010 0.09 0.00 42.9 68.3
10/19/19 - 1200 66.8 -5.9 66 54.9 NE | 43 3.8 17.4 0.00 0.013 0.09 0.00 42.9 68.3
10/19/19 - 1100 63.8 -2.5 57 48.4 E | 82 5.6 10.9 0.00 0.006 0.09 0.00 42.9 64.5
10/19/19 - 1000 60.2 -0.8 62 47.1 ESE | 123 3.5 7.8 0.00 0.003 0.09 0.00 42.9 60.8
10/19/19 - 0900 52.4 0.2 76 45.3 S | 190 5.1 9.4 0.00 0.001 0.09 0.00 42.9 52.8
10/19/19 - 0800 46.2 1.6 86 42.1 SSW | 201 7.0 11.7 0.00 0.000 0.09 0.00 42.9 47.3
10/19/19 - 0700 45.0 1.3 86 41.1 SSW | 212 6.8 11.9 0.00 0.000 0.09 0.00 42.9 47.3
10/19/19 - 0600 44.7 1.2 86 40.6 SSW | 205 8.0 13.4 0.00 0.000 0.09 0.00 42.9 47.3
10/19/19 - 0500 44.0 2.0 87 40.4 SSW | 202 8.1 14.5 0.00 0.000 0.09 0.00 42.9 47.3
10/19/19 - 0400 43.1 1.6 88 39.8 SW | 216 5.4 10.9 0.00 0.000 0.09 0.00 43.0 47.3
10/19/19 - 0300 44.7 2.2 85 40.4 SSW | 207 6.0 12.4 0.00 0.000 0.09 0.00 44.0 47.3
10/19/19 - 0200 45.7 1.7 82 40.6 SSW | 206 6.2 11.9 0.00 0.000 0.09 0.00 44.0 47.3
Max 73.5 3.2 98 58.5 - 13.6 26.8 0.00 0.015 0.09 0.00 48.6 74.3
Avg 56.3 0.2 75 47.1 - 6.7 13.7 0.00 0.003 0.08 - - -
Min 43.1 -5.9 29 39.4 - 2.8 5.5 0.00 0.000 0.07 0.00 42.9 47.3
Total - - - - - - - 0.00 0.149 - - - -